createdAt,value
2022-10-13T00:00:11.022Z,20.33
2022-10-13T00:02:37.380Z,22.05
2022-10-13T00:05:04.015Z,19.10
2022-10-13T00:07:30.437Z,20.08
2022-10-13T00:09:56.799Z,20.55
2022-10-13T00:12:23.599Z,19.40
2022-10-13T00:14:50.524Z,22.60
2022-10-13T00:17:16.937Z,20.25
2022-10-13T00:19:43.445Z,20.70
2022-10-13T00:22:09.938Z,18.92
2022-10-13T00:24:36.306Z,17.90
2022-10-13T00:27:02.777Z,17.05
2022-10-13T00:29:31.041Z,15.48
2022-10-13T00:31:57.658Z,15.85
2022-10-13T00:34:24.003Z,18.50
2022-10-13T00:36:50.359Z,17.27
2022-10-13T00:39:16.993Z,19.65
2022-10-13T00:41:44.578Z,20.92
2022-10-13T00:44:48.255Z,19.20
2022-10-13T00:47:14.704Z,20.80
2022-10-13T00:49:41.099Z,19.77
2022-10-13T00:52:07.663Z,22.45
2022-10-13T00:54:34.365Z,21.40
2022-10-13T00:57:03.054Z,22.00
2022-10-13T00:59:29.870Z,21.45
2022-10-13T01:01:59.305Z,22.63
2022-10-13T01:04:29.358Z,22.05
2022-10-13T01:06:56.818Z,22.25
2022-10-13T01:09:23.508Z,22.70
2022-10-13T01:12:25.220Z,22.73
2022-10-13T01:15:23.767Z,23.45
2022-10-13T01:17:53.202Z,22.92
2022-10-13T01:20:37.616Z,22.90
2022-10-13T01:23:35.903Z,21.30
2022-10-13T01:26:39.939Z,22.70
2022-10-13T01:29:45.463Z,20.80
2022-10-13T01:32:25.032Z,22.88
2022-10-13T01:35:05.888Z,21.65
2022-10-13T01:37:45.888Z,21.15
2022-10-13T01:40:26.349Z,20.40
2022-10-13T01:43:08.488Z,21.42
2022-10-13T01:45:40.209Z,21.10
2022-10-13T01:48:10.745Z,19.60
2022-10-13T01:50:40.524Z,19.92
2022-10-13T01:53:08.308Z,20.25
2022-10-13T01:55:34.691Z,21.50
2022-10-13T01:58:02.314Z,20.10
2022-10-13T02:00:39.950Z,18.00
2022-10-13T02:03:18.099Z,18.63
2022-10-13T02:06:02.990Z,18.70
2022-10-13T02:08:57.790Z,17.70
2022-10-13T02:11:24.834Z,17.75
2022-10-13T02:14:01.619Z,18.30
2022-10-13T02:16:32.531Z,17.65
2022-10-13T02:21:26.308Z,17.85
2022-10-13T02:23:54.903Z,17.73
2022-10-13T02:26:26.710Z,17.23
2022-10-13T02:28:53.261Z,17.65
2022-10-13T02:31:19.562Z,16.63
2022-10-13T02:33:46.062Z,17.05
2022-10-13T02:36:12.629Z,16.75
2022-10-13T02:38:41.767Z,16.38
2022-10-13T02:41:08.227Z,17.27
2022-10-13T02:43:34.780Z,17.50
2022-10-13T02:46:01.125Z,17.20
2022-10-13T02:48:27.662Z,17.38
2022-10-13T02:50:55.218Z,18.63
2022-10-13T02:53:21.687Z,18.52
2022-10-13T02:55:48.052Z,17.95
2022-10-13T02:58:17.496Z,18.58
2022-10-13T03:00:43.837Z,18.40
2022-10-13T03:03:12.277Z,18.73
2022-10-13T03:05:38.638Z,18.70
2022-10-13T03:08:05.563Z,17.33
2022-10-13T03:10:31.976Z,18.13
2022-10-13T03:12:58.672Z,17.15
2022-10-13T03:15:25.925Z,17.13
2022-10-13T03:17:52.647Z,18.00
2022-10-13T03:20:19.221Z,16.27
2022-10-13T03:22:49.573Z,17.10
2022-10-13T03:25:16.435Z,17.60
2022-10-13T03:27:49.205Z,17.63
2022-10-13T03:30:15.865Z,19.08
2022-10-13T03:32:44.412Z,18.13
2022-10-13T03:35:10.720Z,17.80
2022-10-13T03:37:37.228Z,18.25
2022-10-13T03:40:04.093Z,18.40
2022-10-13T03:42:30.761Z,18.75
2022-10-13T03:44:57.443Z,18.30
2022-10-13T03:47:24.236Z,18.60
2022-10-13T03:49:51.808Z,19.77
2022-10-13T03:52:18.635Z,19.98
2022-10-13T03:54:46.517Z,20.63
2022-10-13T03:57:13.061Z,19.65
2022-10-13T03:59:41.591Z,18.98
2022-10-13T04:02:09.446Z,19.20
2022-10-13T04:04:38.300Z,19.45
2022-10-13T04:07:05.341Z,18.90
2022-10-13T04:09:31.860Z,18.63
2022-10-13T04:11:58.305Z,19.85
2022-10-13T04:14:27.266Z,21.05
2022-10-13T04:16:53.726Z,22.00
2022-10-13T04:19:20.312Z,19.13
2022-10-13T04:21:53.211Z,19.75
2022-10-13T04:24:19.562Z,19.00
2022-10-13T04:26:46.107Z,18.85
2022-10-13T04:29:12.920Z,18.55
2022-10-13T04:31:40.574Z,18.65
2022-10-13T04:34:07.012Z,18.55
2022-10-13T04:36:33.633Z,20.05
2022-10-13T04:39:00.217Z,19.48
2022-10-13T04:41:26.960Z,20.63
2022-10-13T04:43:55.233Z,19.95
2022-10-13T04:46:26.847Z,19.35
2022-10-13T04:48:53.423Z,18.70
2022-10-13T04:51:22.627Z,20.25
2022-10-13T04:53:53.526Z,20.33
2022-10-13T04:58:46.837Z,21.17
2022-10-13T05:01:21.379Z,20.05
2022-10-13T05:04:01.549Z,21.25
2022-10-13T05:06:33.998Z,20.77
2022-10-13T05:09:00.929Z,21.10
2022-10-13T05:11:28.369Z,22.55
2022-10-13T05:13:56.154Z,21.75
2022-10-13T05:16:24.695Z,21.80
2022-10-13T05:18:53.249Z,22.33
2022-10-13T05:21:22.991Z,21.73
2022-10-13T05:23:49.696Z,23.83
2022-10-13T05:26:18.416Z,24.70
2022-10-13T05:28:45.324Z,22.77
2022-10-13T05:31:20.268Z,21.77
2022-10-13T05:33:48.172Z,22.13
2022-10-13T05:36:18.343Z,24.48
2022-10-13T05:38:45.468Z,23.02
2022-10-13T05:41:13.523Z,21.63
2022-10-13T05:43:42.536Z,21.35
2022-10-13T05:46:10.011Z,23.10
2022-10-13T05:48:37.790Z,21.90
2022-10-13T05:51:12.240Z,21.00
2022-10-13T05:53:46.748Z,22.92
2022-10-13T05:56:29.899Z,21.35
2022-10-13T05:59:01.299Z,20.25
2022-10-13T06:01:32.800Z,20.48
2022-10-13T06:04:05.418Z,21.90
2022-10-13T06:06:32.157Z,21.70
2022-10-13T06:08:59.887Z,21.83
2022-10-13T06:11:26.454Z,21.10
2022-10-13T06:13:53.027Z,20.70
2022-10-13T06:16:19.896Z,21.48
2022-10-13T06:18:47.491Z,21.90
2022-10-13T06:21:13.938Z,21.40
2022-10-13T06:23:40.300Z,21.08
2022-10-13T06:26:08.158Z,21.55
2022-10-13T06:28:35.729Z,20.48
2022-10-13T06:31:05.385Z,21.25
2022-10-13T06:33:32.148Z,21.58
2022-10-13T06:36:05.896Z,20.63
2022-10-13T06:38:33.718Z,19.33
2022-10-13T06:41:05.316Z,19.38
2022-10-13T06:43:39.663Z,19.65
2022-10-13T06:46:06.837Z,19.83
2022-10-13T06:48:33.406Z,19.83
2022-10-13T06:51:08.536Z,19.83
2022-10-13T06:53:36.567Z,20.27
2022-10-13T06:56:05.739Z,20.17
2022-10-13T06:58:32.234Z,18.98
2022-10-13T07:00:58.711Z,20.60
2022-10-13T07:03:25.930Z,19.83
2022-10-13T07:05:52.981Z,19.33
2022-10-13T07:08:19.761Z,18.55
2022-10-13T07:10:46.286Z,18.83
2022-10-13T07:13:12.764Z,19.80
2022-10-13T07:15:41.910Z,18.33
2022-10-13T07:18:08.501Z,21.42
2022-10-13T07:20:35.542Z,19.85
2022-10-13T07:23:02.549Z,20.42
2022-10-13T07:25:29.087Z,18.60
2022-10-13T07:27:55.861Z,18.83
2022-10-13T07:30:22.813Z,17.83
2022-10-13T07:32:49.559Z,18.23
2022-10-13T07:35:16.378Z,16.63
2022-10-13T07:37:43.570Z,17.55
2022-10-13T07:40:11.218Z,19.27
2022-10-13T07:42:41.848Z,19.00
2022-10-13T07:45:10.024Z,20.05
2022-10-13T07:47:36.374Z,17.10
2022-10-13T07:50:03.210Z,17.67
2022-10-13T07:52:29.823Z,18.35
2022-10-13T07:54:57.000Z,19.20
2022-10-13T07:57:26.344Z,20.10
2022-10-13T07:59:52.877Z,23.05
2022-10-13T08:02:19.680Z,20.60
2022-10-13T08:04:47.091Z,22.27
2022-10-13T08:07:13.494Z,19.98
2022-10-13T08:09:42.471Z,20.85
2022-10-13T08:12:09.138Z,19.52
2022-10-13T08:14:36.283Z,17.88
2022-10-13T08:17:02.933Z,19.63
2022-10-13T08:19:29.450Z,17.95
2022-10-13T08:21:58.705Z,20.67
2022-10-13T08:24:25.823Z,19.55
2022-10-13T08:26:52.440Z,17.95
2022-10-13T08:29:23.405Z,16.13
2022-10-13T08:31:53.095Z,13.82
2022-10-13T08:34:20.343Z,16.25
2022-10-13T08:36:47.137Z,14.85
2022-10-13T08:39:14.053Z,15.93
2022-10-13T08:41:43.129Z,14.05
2022-10-13T08:45:06.270Z,16.50
2022-10-13T08:47:30.136Z,15.65
2022-10-13T08:50:01.969Z,14.50
2022-10-13T08:53:02.869Z,13.70
2022-10-13T08:58:21.927Z,15.70
2022-10-13T09:00:48.721Z,14.35
2022-10-13T09:03:25.353Z,14.80
2022-10-13T09:06:22.711Z,14.30
2022-10-13T09:08:59.713Z,12.77
2022-10-13T09:11:28.818Z,14.73
2022-10-13T09:13:59.386Z,14.45
2022-10-13T09:16:36.968Z,12.95
2022-10-13T09:19:29.617Z,11.82
2022-10-13T09:21:58.915Z,12.88
2022-10-13T09:24:26.938Z,14.73
2022-10-13T09:27:06.805Z,12.88
2022-10-13T09:29:33.330Z,14.18
2022-10-13T09:32:35.298Z,14.05
2022-10-13T09:35:20.661Z,13.43
2022-10-13T09:38:02.535Z,12.30
2022-10-13T09:40:29.131Z,13.98
2022-10-13T09:42:59.523Z,13.27
2022-10-13T09:45:27.582Z,11.35
2022-10-13T09:48:00.401Z,12.80
2022-10-13T09:50:29.578Z,13.93
2022-10-13T09:53:32.517Z,12.32
2022-10-13T09:56:22.021Z,11.15
2022-10-13T09:59:02.205Z,12.73
2022-10-13T10:01:37.088Z,13.43
2022-10-13T10:04:11.054Z,12.57
2022-10-13T10:06:40.527Z,14.35
2022-10-13T10:09:18.454Z,12.88
2022-10-13T10:11:50.376Z,11.23
2022-10-13T10:14:25.883Z,12.30
2022-10-13T10:17:15.801Z,13.00
2022-10-13T10:20:06.841Z,12.52
2022-10-13T10:22:40.896Z,12.18
2022-10-13T10:25:19.483Z,12.88
2022-10-13T10:28:10.746Z,13.05
2022-10-13T10:30:55.195Z,14.20
2022-10-13T10:34:04.362Z,12.85
2022-10-13T10:36:33.626Z,14.93
2022-10-13T10:39:27.026Z,16.35
2022-10-13T10:42:07.662Z,14.02
2022-10-13T10:44:41.272Z,14.57
2022-10-13T10:47:23.659Z,13.07
2022-10-13T10:49:58.466Z,11.73
2022-10-13T10:52:37.881Z,12.13
2022-10-13T10:55:30.133Z,13.50
2022-10-13T10:58:46.934Z,13.05
2022-10-13T11:01:37.593Z,13.20
2022-10-13T11:06:35.988Z,11.10
2022-10-13T11:09:04.961Z,11.23
2022-10-13T11:11:37.547Z,11.82
2022-10-13T11:14:07.464Z,11.20
2022-10-13T11:16:39.977Z,11.52
2022-10-13T11:19:29.827Z,12.82
2022-10-13T11:21:59.021Z,11.87
2022-10-13T11:24:34.460Z,11.18
2022-10-13T11:27:23.536Z,12.52
2022-10-13T11:29:58.886Z,11.20
2022-10-13T11:32:28.670Z,11.38
2022-10-13T11:35:07.241Z,10.93
2022-10-13T11:38:06.677Z,11.85
2022-10-13T11:40:58.485Z,12.35
2022-10-13T11:43:47.932Z,12.57
2022-10-13T11:46:33.675Z,10.07
2022-10-13T11:49:21.435Z,11.75
2022-10-13T11:52:25.458Z,9.88
2022-10-13T11:54:57.303Z,10.93
2022-10-13T11:57:26.895Z,11.10
2022-10-13T11:59:58.215Z,10.43
2022-10-13T12:02:26.861Z,10.75
2022-10-13T12:05:21.434Z,11.80
2022-10-13T12:07:56.292Z,11.63
2022-10-13T12:10:33.224Z,10.88
2022-10-13T12:13:00.476Z,10.80
2022-10-13T12:15:39.550Z,11.13
2022-10-13T12:18:29.370Z,10.25
2022-10-13T12:21:01.377Z,11.77
2022-10-13T12:23:32.803Z,11.73
2022-10-13T12:26:03.647Z,10.50
2022-10-13T12:28:52.881Z,9.18
2022-10-13T12:31:27.777Z,10.98
2022-10-13T12:34:02.035Z,9.18
2022-10-13T12:36:32.197Z,10.80
2022-10-13T12:39:09.058Z,9.90
2022-10-13T12:41:38.946Z,9.00
2022-10-13T12:44:07.855Z,13.52
2022-10-13T12:46:44.569Z,11.45
2022-10-13T12:49:17.324Z,10.23
2022-10-13T12:51:51.770Z,8.75
2022-10-13T12:54:21.801Z,8.35
2022-10-13T12:56:53.782Z,9.60
2022-10-13T12:59:24.712Z,8.20
2022-10-13T13:02:03.916Z,8.70
2022-10-13T13:04:39.850Z,8.77
2022-10-13T13:07:25.226Z,8.38
2022-10-13T13:10:15.802Z,9.02
2022-10-13T13:12:44.354Z,8.25
2022-10-13T13:15:25.895Z,9.05
2022-10-13T13:17:58.670Z,9.57
2022-10-13T13:20:32.420Z,9.38
2022-10-13T13:22:59.953Z,9.52
2022-10-13T13:25:26.868Z,7.30
2022-10-13T13:27:55.354Z,9.88
2022-10-13T13:30:23.932Z,9.38
2022-10-13T13:32:51.019Z,9.93
2022-10-13T13:35:18.544Z,9.13
2022-10-13T13:37:53.741Z,8.40
2022-10-13T13:40:22.907Z,9.38
2022-10-13T13:42:49.729Z,10.35
2022-10-13T13:45:19.095Z,9.23
2022-10-13T13:47:47.289Z,9.57
2022-10-13T13:50:17.534Z,9.90
2022-10-13T13:52:44.162Z,8.38
2022-10-13T13:55:10.830Z,9.75
2022-10-13T13:57:37.214Z,9.95
2022-10-13T14:00:06.731Z,9.88
2022-10-13T14:02:33.186Z,9.13
2022-10-13T14:04:59.685Z,8.93
2022-10-13T14:07:27.313Z,9.02
2022-10-13T14:09:57.837Z,9.20
2022-10-13T14:12:30.556Z,9.55
2022-10-13T14:14:57.214Z,8.30
2022-10-13T14:17:23.872Z,9.07
2022-10-13T14:19:50.588Z,8.90
2022-10-13T14:22:20.273Z,10.75
2022-10-13T14:24:47.258Z,10.40
2022-10-13T14:27:15.970Z,10.40
2022-10-13T14:29:42.498Z,8.60
2022-10-13T14:32:09.636Z,8.85
2022-10-13T14:34:36.358Z,7.72
2022-10-13T14:37:02.773Z,8.27
2022-10-13T14:39:29.316Z,8.45
2022-10-13T14:41:56.229Z,8.93
2022-10-13T14:44:23.057Z,8.43
2022-10-13T14:46:49.735Z,8.15
2022-10-13T14:49:16.350Z,8.25
2022-10-13T14:51:43.150Z,7.53
2022-10-13T14:54:09.841Z,8.18
2022-10-13T14:56:36.363Z,7.35
2022-10-13T14:59:05.835Z,7.53
2022-10-13T15:01:32.614Z,8.80
2022-10-13T15:04:00.422Z,8.68
2022-10-13T15:06:28.244Z,9.10
2022-10-13T15:08:55.249Z,8.88
2022-10-13T15:11:22.783Z,8.98
2022-10-13T15:13:49.837Z,8.60
2022-10-13T15:16:19.577Z,7.90
2022-10-13T15:18:46.117Z,8.07
2022-10-13T15:21:13.095Z,8.30
2022-10-13T15:23:40.237Z,9.77
2022-10-13T15:26:07.502Z,10.00
2022-10-13T15:28:38.268Z,10.05
2022-10-13T15:31:05.551Z,9.70
2022-10-13T15:33:33.620Z,8.57
2022-10-13T15:36:00.798Z,9.68
2022-10-13T15:38:27.739Z,8.65
2022-10-13T15:40:59.795Z,9.68
2022-10-13T15:43:27.454Z,10.43
2022-10-13T15:46:14.962Z,10.82
2022-10-13T15:48:41.900Z,10.82
2022-10-13T15:51:19.474Z,11.27
2022-10-13T15:53:47.686Z,11.30
2022-10-13T15:56:15.179Z,11.88
2022-10-13T15:58:42.144Z,12.15
2022-10-13T16:01:10.857Z,11.63
2022-10-13T16:03:37.799Z,9.65
2022-10-13T16:06:06.630Z,9.35
2022-10-13T16:08:36.732Z,11.32
2022-10-13T16:11:08.127Z,10.80
2022-10-13T16:13:37.828Z,9.88
2022-10-13T16:16:08.039Z,10.60
2022-10-13T16:18:39.831Z,9.43
2022-10-13T16:21:18.850Z,9.48
2022-10-13T16:23:47.264Z,8.77
2022-10-13T16:26:14.966Z,8.90
2022-10-13T16:28:41.763Z,9.30
2022-10-13T16:31:11.494Z,8.95
2022-10-13T16:33:40.451Z,7.53
2022-10-13T16:36:19.871Z,9.38
2022-10-13T16:38:47.180Z,8.90
2022-10-13T16:41:19.287Z,8.35
2022-10-13T16:43:46.567Z,9.82
2022-10-13T16:46:15.777Z,9.52
2022-10-13T16:48:43.530Z,10.35
2022-10-13T16:51:14.680Z,9.55
2022-10-13T16:53:41.461Z,10.13
2022-10-13T16:56:09.207Z,9.20
2022-10-13T16:58:36.722Z,9.35
2022-10-13T17:01:05.570Z,8.93
2022-10-13T17:03:33.562Z,9.02
2022-10-13T17:06:00.680Z,9.23
2022-10-13T17:08:27.145Z,9.77
2022-10-13T17:10:57.968Z,9.85
2022-10-13T17:13:24.946Z,10.48
2022-10-13T17:15:52.737Z,9.52
2022-10-13T17:18:19.877Z,9.60
2022-10-13T17:21:04.557Z,9.85
2022-10-13T17:23:31.958Z,10.77
2022-10-13T17:26:07.189Z,10.82
2022-10-13T17:28:36.704Z,10.98
2022-10-13T17:31:09.515Z,10.90
2022-10-13T17:33:37.552Z,10.52
2022-10-13T17:36:11.078Z,9.30
2022-10-13T17:38:38.584Z,11.82
2022-10-13T17:41:07.530Z,12.43
2022-10-13T17:43:35.512Z,13.15
2022-10-13T17:49:01.237Z,14.23
2022-10-13T17:51:28.724Z,13.95
2022-10-13T17:53:55.835Z,13.90
2022-10-13T17:56:24.522Z,13.48
2022-10-13T17:58:52.054Z,12.27
2022-10-13T18:01:22.029Z,12.20
2022-10-13T18:03:50.928Z,13.23
2022-10-13T18:06:22.929Z,12.32
2022-10-13T18:08:50.227Z,12.45
2022-10-13T18:11:18.868Z,12.32
2022-10-13T18:13:45.771Z,11.70
2022-10-13T18:16:21.710Z,11.45
2022-10-13T18:18:49.670Z,11.95
2022-10-13T18:21:21.115Z,12.93
2022-10-13T18:23:47.860Z,13.15
2022-10-13T18:26:19.445Z,11.38
2022-10-13T18:28:47.796Z,11.30
2022-10-13T18:31:16.960Z,12.13
2022-10-13T18:33:44.072Z,10.82
2022-10-13T18:36:28.880Z,10.95
2022-10-13T18:39:01.647Z,10.32
2022-10-13T18:41:28.216Z,10.73
2022-10-13T18:43:55.256Z,9.82
2022-10-13T18:46:21.888Z,10.88
2022-10-13T18:48:48.361Z,11.82
2022-10-13T18:51:17.107Z,10.82
2022-10-13T18:53:45.335Z,11.32
2022-10-13T18:56:18.184Z,11.55
2022-10-13T18:58:45.411Z,12.98
2022-10-13T19:01:14.676Z,11.43
2022-10-13T19:03:41.984Z,12.80
2022-10-13T19:06:10.764Z,13.88
2022-10-13T19:08:37.583Z,13.30
2022-10-13T19:11:17.796Z,16.23
2022-10-13T19:13:45.486Z,13.80
2022-10-13T19:16:13.888Z,15.32
2022-10-13T19:18:41.612Z,13.45
2022-10-13T19:21:08.948Z,16.67
2022-10-13T19:23:35.785Z,14.10
2022-10-13T19:26:14.634Z,13.93
2022-10-13T19:28:43.209Z,13.63
2022-10-13T19:31:12.673Z,12.30
2022-10-13T19:33:44.389Z,16.30
2022-10-13T19:36:20.032Z,14.75
2022-10-13T19:38:55.268Z,14.30
2022-10-13T19:41:22.702Z,14.80
2022-10-13T19:43:50.272Z,14.43
2022-10-13T19:46:17.146Z,14.50
2022-10-13T19:48:43.643Z,15.85
2022-10-13T19:51:11.042Z,16.23
2022-10-13T19:53:39.340Z,16.98
2022-10-13T19:56:06.751Z,14.75
2022-10-13T19:58:34.402Z,14.85
2022-10-13T20:01:09.862Z,14.02
2022-10-13T20:03:36.375Z,14.30
2022-10-13T20:06:04.889Z,15.60
2022-10-13T20:08:31.831Z,16.52
2022-10-13T20:10:58.659Z,14.70
2022-10-13T20:13:28.360Z,14.57
2022-10-13T20:15:54.721Z,14.73
2022-10-13T20:18:24.883Z,15.38
2022-10-13T20:20:51.618Z,14.90
2022-10-13T20:23:18.041Z,14.50
2022-10-13T20:25:45.041Z,14.82
2022-10-13T20:28:11.679Z,14.75
2022-10-13T20:30:40.621Z,14.63
2022-10-13T20:33:07.308Z,14.35
2022-10-13T20:35:33.829Z,14.57
2022-10-13T20:38:00.492Z,16.15
2022-10-13T20:40:30.840Z,14.35
2022-10-13T20:42:58.294Z,14.13
2022-10-13T20:45:25.995Z,16.17
2022-10-13T20:47:52.831Z,16.98
2022-10-13T20:50:19.462Z,17.80
2022-10-13T20:52:48.244Z,17.55
2022-10-13T20:55:14.847Z,15.55
2022-10-13T20:57:41.274Z,18.73
2022-10-13T21:00:10.041Z,16.13
2022-10-13T21:02:38.038Z,15.18
2022-10-13T21:05:04.810Z,16.73
2022-10-13T21:07:31.395Z,18.00
2022-10-13T21:09:57.865Z,16.60
2022-10-13T21:12:24.427Z,18.00
2022-10-13T21:14:52.434Z,16.08
2022-10-13T21:17:21.823Z,14.90
2022-10-13T21:19:48.966Z,14.45
2022-10-13T21:22:15.977Z,16.30
2022-10-13T21:24:42.623Z,16.77
2022-10-13T21:27:09.236Z,15.75
2022-10-13T21:29:35.614Z,15.75
2022-10-13T21:32:02.208Z,14.65
2022-10-13T21:34:31.139Z,15.23
2022-10-13T21:36:57.685Z,15.43
2022-10-13T21:39:24.539Z,16.50
2022-10-13T21:41:51.216Z,14.55
2022-10-13T21:44:18.566Z,13.70
2022-10-13T21:46:45.267Z,15.85
2022-10-13T21:49:11.915Z,14.85
2022-10-13T21:51:40.163Z,15.93
2022-10-13T21:54:13.475Z,15.15
2022-10-13T21:56:41.626Z,14.65
2022-10-13T21:59:11.099Z,15.57
2022-10-13T22:01:37.488Z,14.80
2022-10-13T22:04:05.042Z,16.98
2022-10-13T22:06:32.561Z,15.98
2022-10-13T22:09:00.865Z,15.60
2022-10-13T22:11:31.813Z,14.68
2022-10-13T22:14:00.382Z,16.52
2022-10-13T22:16:36.215Z,17.23
2022-10-13T22:19:02.791Z,17.10
2022-10-13T22:21:33.713Z,16.52
2022-10-13T22:24:03.728Z,15.23
2022-10-13T22:26:32.441Z,16.02
2022-10-13T22:29:00.905Z,15.40
2022-10-13T22:31:28.204Z,15.90
2022-10-13T22:33:55.609Z,16.00
2022-10-13T22:36:23.481Z,14.45
2022-10-13T22:38:51.631Z,14.65
2022-10-13T22:41:19.394Z,14.85
2022-10-13T22:43:50.466Z,15.00
2022-10-13T22:46:21.063Z,14.55
2022-10-13T22:48:48.169Z,17.23
2022-10-13T22:51:20.459Z,14.93
2022-10-13T22:53:48.534Z,15.88
2022-10-13T22:56:26.467Z,17.17
2022-10-13T22:58:58.808Z,17.70
2022-10-13T23:01:26.441Z,16.90
2022-10-13T23:03:55.764Z,18.00
2022-10-13T23:06:24.833Z,18.33
2022-10-13T23:08:53.403Z,16.90
2022-10-13T23:11:20.348Z,18.50
2022-10-13T23:13:47.597Z,16.73
2022-10-13T23:16:20.412Z,16.00
2022-10-13T23:18:47.657Z,16.92
2022-10-13T23:21:18.526Z,15.35
2022-10-13T23:23:45.525Z,16.20
2022-10-13T23:26:14.551Z,15.60
2022-10-13T23:28:41.602Z,14.68
2022-10-13T23:31:12.322Z,14.80
2022-10-13T23:36:06.717Z,14.05
2022-10-13T23:38:33.806Z,14.15
2022-10-13T23:41:12.316Z,15.60
2022-10-13T23:43:39.148Z,14.57
2022-10-13T23:46:07.718Z,15.32
2022-10-13T23:48:34.289Z,15.15
2022-10-13T23:51:10.027Z,13.82
2022-10-13T23:53:39.091Z,13.65
2022-10-13T23:56:08.184Z,13.63
2022-10-13T23:58:40.560Z,15.27
